createdAt,value
2023-04-15T00:00:11.844Z,7.00
2023-04-15T00:01:10.895Z,6.90
2023-04-15T00:02:10.931Z,7.00
2023-04-15T00:03:10.985Z,7.00
2023-04-15T00:04:11.927Z,7.00
2023-04-15T00:05:10.838Z,7.20
2023-04-15T00:06:10.898Z,7.70
2023-04-15T00:07:10.802Z,7.50
2023-04-15T00:08:10.815Z,7.50
2023-04-15T00:09:11.379Z,7.90
2023-04-15T00:10:10.798Z,7.50
2023-04-15T00:11:10.826Z,8.10
2023-04-15T00:12:10.761Z,8.20
2023-04-15T00:13:12.287Z,7.70
2023-04-15T00:14:10.718Z,8.20
2023-04-15T00:15:10.734Z,8.40
2023-04-15T00:16:10.781Z,8.10
2023-04-15T00:17:10.691Z,8.30
2023-04-15T00:18:10.714Z,8.20
2023-04-15T00:19:10.682Z,8.30
2023-04-15T00:20:10.678Z,8.70
2023-04-15T00:21:10.666Z,8.90
2023-04-15T00:22:10.656Z,8.70
2023-04-15T00:23:10.625Z,8.80
2023-04-15T00:24:10.666Z,8.90
2023-04-15T00:25:10.611Z,8.80
2023-04-15T00:26:10.590Z,8.80
2023-04-15T00:27:10.615Z,8.80
2023-04-15T00:28:10.570Z,9.10
2023-04-15T00:29:10.539Z,8.40
2023-04-15T00:30:10.582Z,8.60
2023-04-15T00:31:10.588Z,9.20
2023-04-15T00:32:10.527Z,8.20
2023-04-15T00:33:10.527Z,7.90
2023-04-15T00:34:10.519Z,8.20
2023-04-15T00:35:10.525Z,8.00
2023-04-15T00:36:10.533Z,7.70
2023-04-15T00:37:10.450Z,8.70
2023-04-15T00:38:10.478Z,8.00
2023-04-15T00:39:10.510Z,8.90
2023-04-15T00:40:10.441Z,8.50
2023-04-15T00:41:10.430Z,8.90
2023-04-15T00:42:10.433Z,8.80
2023-04-15T00:43:11.380Z,8.90
2023-04-15T00:44:10.409Z,8.70
2023-04-15T00:45:10.376Z,8.50
2023-04-15T00:46:10.427Z,8.40
2023-04-15T00:47:10.357Z,8.90
2023-04-15T00:48:10.397Z,8.40
2023-04-15T00:49:10.414Z,8.50
2023-04-15T00:50:10.358Z,8.40
2023-04-15T00:51:10.338Z,8.40
2023-04-15T00:52:10.293Z,8.30
2023-04-15T00:53:10.339Z,8.30
2023-04-15T00:54:10.333Z,8.10
2023-04-15T00:55:10.297Z,8.30
2023-04-15T00:56:10.314Z,7.80
2023-04-15T00:57:10.254Z,8.20
2023-04-15T00:58:10.246Z,8.10
2023-04-15T00:59:10.274Z,8.10
2023-04-15T01:00:10.248Z,8.10
2023-04-15T01:01:10.260Z,8.60
2023-04-15T01:02:10.455Z,7.70
2023-04-15T01:03:10.330Z,8.20
2023-04-15T01:04:10.826Z,8.00
2023-04-15T01:05:10.190Z,7.90
2023-04-15T01:06:11.308Z,8.40
2023-04-15T01:07:10.129Z,7.90
2023-04-15T01:08:10.138Z,7.90
2023-04-15T01:09:10.105Z,8.40
2023-04-15T01:10:10.142Z,8.80
2023-04-15T01:11:10.830Z,8.20
2023-04-15T01:12:10.099Z,8.90
2023-04-15T01:13:10.094Z,8.90
2023-04-15T01:14:10.085Z,8.30
2023-04-15T01:15:10.049Z,8.20
2023-04-15T01:16:10.122Z,8.40
2023-04-15T01:17:10.050Z,8.60
2023-04-15T01:18:10.029Z,8.80
2023-04-15T01:19:10.008Z,8.40
2023-04-15T01:20:10.055Z,8.40
2023-04-15T01:21:09.995Z,8.50
2023-04-15T01:22:09.976Z,8.80
2023-04-15T01:23:09.983Z,8.90
2023-04-15T01:24:09.970Z,8.70
2023-04-15T01:25:09.973Z,8.50
2023-04-15T01:26:09.925Z,8.20
2023-04-15T01:27:09.910Z,8.50
2023-04-15T01:28:09.910Z,7.70
2023-04-15T01:29:09.889Z,8.30
2023-04-15T01:30:09.896Z,8.90
2023-04-15T01:31:09.895Z,8.30
2023-04-15T01:32:10.767Z,9.30
2023-04-15T01:33:09.842Z,9.50
2023-04-15T01:34:09.826Z,9.30
2023-04-15T01:35:09.838Z,9.60
2023-04-15T01:36:09.822Z,8.70
2023-04-15T01:37:09.885Z,9.00
2023-04-15T01:38:09.840Z,8.90
2023-04-15T01:39:09.787Z,9.20
2023-04-15T01:40:09.765Z,10.40
2023-04-15T01:41:09.746Z,10.40
2023-04-15T01:42:09.741Z,10.80
2023-04-15T01:43:09.745Z,10.40
2023-04-15T01:44:09.694Z,10.50
2023-04-15T01:45:09.706Z,9.90
2023-04-15T01:46:09.725Z,9.90
2023-04-15T01:47:09.694Z,9.60
2023-04-15T01:48:09.696Z,9.80
2023-04-15T01:49:09.675Z,10.00
2023-04-15T01:50:09.651Z,9.60
2023-04-15T01:51:09.667Z,10.10
2023-04-15T01:52:09.587Z,9.60
2023-04-15T01:53:09.606Z,9.80
2023-04-15T01:54:09.628Z,9.70
2023-04-15T01:55:09.578Z,9.20
2023-04-15T01:56:09.608Z,9.30
2023-04-15T01:57:09.576Z,9.70
2023-04-15T01:58:09.578Z,9.30
2023-04-15T01:59:10.201Z,10.10
2023-04-15T02:00:09.533Z,9.80
2023-04-15T02:01:09.556Z,9.30
2023-04-15T02:02:09.659Z,9.80
2023-04-15T02:03:09.541Z,9.60
2023-04-15T02:04:09.546Z,9.40
2023-04-15T02:05:09.513Z,10.20
2023-04-15T02:06:09.459Z,9.80
2023-04-15T02:07:09.492Z,9.90
2023-04-15T02:08:10.394Z,9.50
2023-04-15T02:09:09.561Z,10.40
2023-04-15T02:10:09.435Z,10.00
2023-04-15T02:11:09.446Z,10.20
2023-04-15T02:12:09.407Z,10.30
2023-04-15T02:13:09.383Z,10.70
2023-04-15T02:14:09.446Z,10.30
2023-04-15T02:15:09.383Z,10.30
2023-04-15T02:16:09.411Z,10.40
2023-04-15T02:17:09.336Z,10.00
2023-04-15T02:18:09.362Z,10.60
2023-04-15T02:19:09.537Z,10.90
2023-04-15T02:20:09.356Z,11.00
2023-04-15T02:21:09.303Z,10.90
2023-04-15T02:22:09.334Z,11.20
2023-04-15T02:23:09.338Z,10.70
2023-04-15T02:24:09.312Z,11.20
2023-04-15T02:25:09.276Z,10.90
2023-04-15T02:26:09.260Z,10.40
2023-04-15T02:27:09.288Z,10.10
2023-04-15T02:28:09.236Z,10.50
2023-04-15T02:29:09.200Z,10.50
2023-04-15T02:30:09.267Z,10.20
2023-04-15T02:31:09.254Z,10.70
2023-04-15T02:32:09.266Z,11.20
2023-04-15T02:33:09.157Z,10.40
2023-04-15T02:34:09.138Z,10.40
2023-04-15T02:35:09.204Z,11.30
2023-04-15T02:36:09.166Z,10.30
2023-04-15T02:37:09.157Z,10.60
2023-04-15T02:38:09.125Z,10.50
2023-04-15T02:39:09.107Z,10.70
2023-04-15T02:40:09.112Z,10.50
2023-04-15T02:41:09.080Z,10.40
2023-04-15T02:42:42.772Z,10.20
2023-04-15T02:43:09.075Z,11.20
2023-04-15T02:44:10.906Z,10.20
2023-04-15T02:45:09.015Z,11.20
2023-04-15T02:46:10.092Z,10.40
2023-04-15T02:47:09.054Z,10.30
2023-04-15T02:48:09.012Z,9.90
2023-04-15T02:49:09.025Z,10.60
2023-04-15T02:50:09.545Z,10.70
2023-04-15T02:51:08.969Z,10.60
2023-04-15T02:52:08.986Z,10.70
2023-04-15T02:53:08.942Z,11.10
2023-04-15T02:54:08.950Z,11.10
2023-04-15T02:55:08.905Z,11.10
2023-04-15T02:56:08.914Z,11.40
2023-04-15T02:57:08.916Z,11.20
2023-04-15T02:58:08.947Z,11.30
2023-04-15T02:59:08.879Z,11.20
2023-04-15T03:00:08.859Z,11.50
2023-04-15T03:01:08.870Z,10.90
2023-04-15T03:02:08.911Z,12.00
2023-04-15T03:03:09.084Z,11.70
2023-04-15T03:04:08.958Z,11.70
2023-04-15T03:05:08.824Z,11.60
2023-04-15T03:06:09.786Z,11.00
2023-04-15T03:07:08.783Z,12.00
2023-04-15T03:08:08.804Z,11.80
2023-04-15T03:09:08.795Z,11.40
2023-04-15T03:10:08.793Z,12.00
2023-04-15T03:11:08.754Z,11.90
2023-04-15T03:12:08.737Z,11.50
2023-04-15T03:13:08.713Z,11.60
2023-04-15T03:14:08.696Z,10.90
2023-04-15T03:15:08.739Z,11.40
2023-04-15T03:16:08.679Z,11.60
2023-04-15T03:17:08.678Z,12.10
2023-04-15T03:18:08.666Z,11.50
2023-04-15T03:19:08.722Z,10.70
2023-04-15T03:20:08.713Z,11.70
2023-04-15T03:21:08.637Z,12.50
2023-04-15T03:22:08.614Z,11.70
2023-04-15T03:23:08.570Z,12.70
2023-04-15T03:24:08.580Z,12.30
2023-04-15T03:25:09.593Z,12.30
2023-04-15T03:26:08.585Z,12.70
2023-04-15T03:27:08.563Z,12.50
2023-04-15T03:28:08.575Z,11.80
2023-04-15T03:29:08.522Z,11.60
2023-04-15T03:30:08.519Z,11.40
2023-04-15T03:31:08.566Z,11.20
2023-04-15T03:32:08.585Z,12.00
2023-04-15T03:33:08.491Z,12.60
2023-04-15T03:34:09.392Z,12.00
2023-04-15T03:35:08.498Z,10.90
2023-04-15T03:36:08.459Z,11.50
2023-04-15T03:37:08.438Z,11.90
2023-04-15T03:38:08.419Z,11.90
2023-04-15T03:39:08.429Z,12.90
2023-04-15T03:40:08.387Z,12.10
2023-04-15T03:41:08.366Z,12.40
2023-04-15T03:42:09.496Z,12.60
2023-04-15T03:43:08.352Z,12.60
2023-04-15T03:44:08.376Z,12.70
2023-04-15T03:45:08.333Z,12.10
2023-04-15T03:46:08.391Z,12.50
2023-04-15T03:47:08.331Z,12.10
2023-04-15T03:48:17.123Z,12.20
2023-04-15T03:49:10.302Z,12.80
2023-04-15T03:50:08.321Z,13.30
2023-04-15T03:51:08.294Z,13.70
2023-04-15T03:52:08.302Z,13.70
2023-04-15T03:53:08.311Z,13.40
2023-04-15T03:54:08.247Z,13.20
2023-04-15T03:55:08.268Z,12.10
2023-04-15T03:56:08.227Z,13.10
2023-04-15T03:57:08.234Z,12.50
2023-04-15T03:58:08.878Z,12.40
2023-04-15T03:59:08.231Z,11.40
2023-04-15T04:00:08.204Z,11.90
2023-04-15T04:01:08.179Z,11.50
2023-04-15T04:02:08.213Z,13.30
2023-04-15T04:03:08.526Z,13.40
2023-04-15T04:04:08.204Z,13.00
2023-04-15T04:05:08.139Z,13.20
2023-04-15T04:06:08.095Z,12.20
2023-04-15T04:07:08.118Z,12.30
2023-04-15T04:08:08.099Z,12.00
2023-04-15T04:09:08.082Z,12.60
2023-04-15T04:10:08.100Z,13.70
2023-04-15T04:11:08.199Z,13.20
2023-04-15T04:12:08.161Z,12.90
2023-04-15T04:13:08.691Z,13.30
2023-04-15T04:14:08.079Z,14.30
2023-04-15T04:15:08.016Z,13.40
2023-04-15T04:16:08.180Z,13.40
2023-04-15T04:17:08.114Z,13.50
2023-04-15T04:18:08.000Z,12.90
2023-04-15T04:19:07.979Z,13.00
2023-04-15T04:20:07.934Z,13.00
2023-04-15T04:21:07.985Z,13.10
2023-04-15T04:22:07.922Z,13.40
2023-04-15T04:23:07.921Z,13.10
2023-04-15T04:30:22.365Z,12.70
2023-04-15T04:31:23.656Z,12.50
2023-04-15T04:32:23.542Z,13.50
2023-04-15T04:33:23.595Z,12.60
2023-04-15T04:34:23.536Z,12.10
2023-04-15T04:35:23.515Z,12.90
2023-04-15T04:36:23.474Z,13.70
2023-04-15T04:37:23.594Z,13.70
2023-04-15T04:38:23.404Z,13.60
2023-04-15T04:39:23.449Z,12.40
2023-04-15T04:40:23.460Z,12.80
2023-04-15T04:41:23.380Z,12.80
2023-04-15T04:42:24.162Z,13.60
2023-04-15T04:43:23.295Z,13.50
2023-04-15T04:44:23.409Z,13.30
2023-04-15T04:45:23.349Z,13.40
2023-04-15T04:46:23.525Z,14.70
2023-04-15T04:47:23.300Z,15.60
2023-04-15T04:48:23.370Z,14.60
2023-04-15T04:49:23.365Z,14.80
2023-04-15T04:50:23.348Z,14.50
2023-04-15T04:51:23.253Z,14.50
2023-04-15T04:52:23.277Z,15.00
2023-04-15T04:53:23.249Z,15.30
2023-04-15T04:54:23.257Z,14.70
2023-04-15T04:55:23.241Z,14.80
2023-04-15T04:56:23.340Z,14.00
2023-04-15T04:57:23.305Z,14.40
2023-04-15T04:58:23.159Z,14.10
2023-04-15T04:59:23.150Z,14.10
2023-04-15T05:00:23.193Z,14.60
2023-04-15T05:01:23.285Z,13.70
2023-04-15T05:02:23.184Z,13.80
2023-04-15T05:03:23.270Z,14.30
2023-04-15T05:04:23.086Z,14.90
2023-04-15T05:05:23.736Z,14.50
2023-04-15T05:06:23.147Z,15.70
2023-04-15T05:07:23.168Z,14.70
2023-04-15T05:08:23.171Z,14.30
2023-04-15T05:09:23.143Z,15.10
2023-04-15T05:10:23.009Z,14.80
2023-04-15T05:11:23.110Z,14.60
2023-04-15T05:12:23.007Z,13.90
2023-04-15T05:13:22.991Z,14.40
2023-04-15T05:14:23.463Z,14.30
2023-04-15T05:15:24.230Z,14.10
2023-04-15T05:16:23.090Z,14.10
2023-04-15T05:17:23.033Z,14.30
2023-04-15T05:18:22.954Z,15.30
2023-04-15T05:19:23.063Z,14.90
2023-04-15T05:20:22.931Z,14.60
2023-04-15T05:21:22.953Z,14.30
2023-04-15T05:22:22.902Z,13.80
2023-04-15T05:23:22.942Z,14.90
2023-04-15T05:24:22.894Z,14.70
2023-04-15T05:25:23.068Z,16.50
2023-04-15T05:26:22.858Z,17.50
2023-04-15T05:27:22.837Z,18.30
2023-04-15T05:28:22.889Z,19.90
2023-04-15T05:29:22.795Z,20.80
2023-04-15T05:30:22.820Z,20.10
2023-04-15T05:31:22.784Z,20.10
2023-04-15T05:32:22.884Z,19.40
2023-04-15T05:33:22.805Z,19.20
2023-04-15T05:34:22.783Z,18.60
2023-04-15T05:35:22.894Z,18.70
2023-04-15T05:36:22.736Z,20.20
2023-04-15T05:37:22.737Z,18.70
2023-04-15T05:38:22.728Z,18.40
2023-04-15T05:39:22.744Z,19.90
2023-04-15T05:40:22.738Z,19.50
2023-04-15T05:41:22.840Z,19.30
2023-04-15T05:42:22.703Z,19.40
2023-04-15T05:43:22.639Z,19.50
2023-04-15T05:44:22.656Z,18.70
2023-04-15T05:45:22.755Z,19.80
2023-04-15T05:46:22.629Z,19.50
2023-04-15T05:47:22.652Z,18.90
2023-04-15T05:48:22.595Z,20.10
2023-04-15T05:49:23.203Z,19.50
2023-04-15T05:50:22.573Z,19.80
2023-04-15T05:51:22.676Z,19.20
2023-04-15T05:52:22.540Z,19.70
2023-04-15T05:53:22.532Z,19.80
2023-04-15T05:54:22.520Z,20.00
2023-04-15T05:55:22.543Z,19.80
2023-04-15T05:56:22.739Z,19.50
2023-04-15T05:57:22.480Z,18.70
2023-04-15T05:58:22.637Z,18.00
2023-04-15T05:59:48.961Z,17.10
2023-04-15T06:00:34.457Z,17.70
2023-04-15T06:03:22.051Z,17.50
2023-04-15T06:04:14.440Z,18.10
2023-04-15T06:08:20.773Z,17.70
2023-04-15T06:09:25.977Z,17.70
2023-04-15T06:10:23.032Z,17.00
2023-04-15T06:11:21.740Z,17.10
2023-04-15T06:12:21.776Z,16.60
2023-04-15T06:13:21.814Z,16.70
2023-04-15T06:14:21.449Z,15.70
2023-04-15T06:15:23.104Z,15.60
2023-04-15T06:16:22.077Z,15.60
2023-04-15T06:17:26.328Z,15.50
2023-04-15T06:19:55.216Z,15.30
2023-04-15T06:19:58.640Z,15.20
2023-04-15T06:21:01.455Z,14.50
2023-04-15T06:21:58.264Z,15.00
2023-04-15T06:23:21.218Z,14.40
2023-04-15T06:23:59.526Z,14.50
2023-04-15T06:25:00.255Z,14.00
2023-04-15T06:26:01.410Z,14.00
2023-04-15T06:27:00.520Z,12.90
2023-04-15T06:27:57.670Z,12.20
2023-04-15T06:28:57.585Z,12.60
2023-04-15T06:29:57.439Z,12.70
2023-04-15T06:30:57.434Z,11.80
2023-04-15T06:31:58.179Z,13.00
2023-04-15T06:32:57.547Z,12.50
2023-04-15T06:33:58.411Z,12.50
2023-04-15T06:34:57.426Z,12.70
2023-04-15T06:35:57.463Z,12.70
2023-04-15T06:36:57.272Z,12.90
2023-04-15T06:38:00.563Z,13.00
2023-04-15T06:39:01.063Z,13.30
2023-04-15T06:42:39.266Z,13.20
2023-04-15T06:42:55.445Z,12.70
2023-04-15T06:43:49.516Z,12.70
2023-04-15T06:44:53.563Z,13.20
2023-04-15T06:45:53.255Z,12.20
2023-04-15T06:46:55.396Z,12.50
2023-04-15T06:47:43.862Z,12.90
2023-04-15T06:48:44.006Z,12.60
2023-04-15T06:49:43.570Z,12.20
2023-04-15T06:50:43.797Z,13.10
2023-04-15T06:51:44.441Z,13.10
2023-04-15T06:52:43.794Z,12.10
2023-04-15T06:53:44.266Z,12.50
2023-04-15T06:54:44.384Z,12.80
2023-04-15T06:55:47.199Z,12.70
2023-04-15T06:56:45.177Z,12.70
2023-04-15T06:57:44.204Z,12.30
2023-04-15T06:58:43.698Z,12.70
2023-04-15T06:59:46.652Z,11.90
2023-04-15T07:00:53.717Z,12.40
2023-04-15T07:01:43.259Z,13.00
2023-04-15T08:02:57.951Z,15.50
2023-04-15T08:15:27.210Z,14.50
2023-04-15T08:15:43.255Z,13.80
2023-04-15T08:18:17.628Z,12.80
2023-04-15T08:19:51.113Z,12.30
2023-04-15T08:20:31.178Z,12.10
2023-04-15T08:21:20.245Z,12.20
2023-04-15T08:22:28.754Z,11.90
2023-04-15T08:23:19.408Z,11.50
2023-04-15T08:24:42.705Z,11.80
2023-04-15T08:25:20.765Z,10.80
2023-04-15T08:26:17.641Z,10.90
2023-04-15T08:27:28.591Z,10.50
2023-04-15T08:28:22.195Z,10.30
2023-04-15T08:29:23.994Z,10.70
2023-04-15T08:31:48.991Z,10.80
2023-04-15T08:32:06.671Z,11.00
2023-04-15T08:33:06.564Z,11.00
2023-04-15T08:35:17.678Z,10.40
2023-04-15T08:35:20.598Z,10.00
2023-04-15T08:36:31.992Z,10.10
2023-04-15T08:37:20.078Z,9.40
2023-04-15T08:38:19.716Z,9.80
2023-04-15T08:39:20.228Z,9.70
2023-04-15T08:40:20.599Z,9.50
2023-04-15T08:41:26.268Z,9.70
2023-04-15T08:42:26.436Z,9.70
2023-04-15T08:43:27.140Z,8.40
2023-04-15T08:44:19.651Z,9.00
2023-04-15T08:45:19.618Z,8.80
2023-04-15T08:46:19.412Z,8.30
2023-04-15T08:47:19.363Z,8.20
2023-04-15T08:48:19.353Z,8.30
2023-04-15T08:49:19.376Z,8.10
2023-04-15T08:50:19.524Z,7.80
2023-04-15T08:51:19.405Z,8.40
2023-04-15T08:52:19.438Z,8.50
2023-04-15T08:53:19.396Z,8.10
2023-04-15T08:54:19.328Z,8.10
2023-04-15T08:55:19.414Z,8.00
2023-04-15T08:56:19.383Z,7.60
2023-04-15T08:57:19.241Z,8.30
2023-04-15T09:17:17.964Z,8.00
2023-04-15T09:29:28.291Z,7.60
2023-04-15T09:59:46.285Z,6.70
2023-04-15T09:59:47.980Z,6.30
2023-04-15T10:06:37.724Z,6.70
2023-04-15T10:07:37.788Z,7.60
2023-04-15T10:08:37.831Z,7.40
2023-04-15T10:09:38.371Z,7.40
2023-04-15T10:10:44.387Z,8.00
2023-04-15T10:11:37.847Z,10.70
2023-04-15T10:12:38.383Z,11.10
2023-04-15T10:13:38.124Z,10.10
2023-04-15T10:14:38.895Z,10.00
2023-04-15T10:15:37.738Z,9.20
2023-04-15T10:17:59.692Z,8.40
2023-04-15T10:19:27.015Z,12.00
2023-04-15T10:19:30.884Z,7.00
2023-04-15T10:21:50.988Z,6.80
2023-04-15T10:21:53.460Z,6.40
2023-04-15T10:23:09.418Z,7.00
2023-04-15T10:23:53.476Z,7.30
